createdAt,value
2019-01-14T00:01:58.814Z,13.18
2019-01-14T00:04:30.592Z,13.22
2019-01-14T00:07:02.313Z,13.22
2019-01-14T00:09:34.000Z,13.18
2019-01-14T00:12:05.724Z,13.17
2019-01-14T00:14:38.405Z,13.17
2019-01-14T00:17:10.287Z,13.02
2019-01-14T00:19:41.854Z,13.22
2019-01-14T00:22:13.701Z,13.22
2019-01-14T00:24:45.292Z,13.21
2019-01-14T00:27:16.744Z,13.09
2019-01-14T00:29:48.320Z,13.05
2019-01-14T00:32:20.013Z,13.05
2019-01-14T00:34:51.743Z,13.05
2019-01-14T00:37:23.454Z,13.01
2019-01-14T00:39:54.903Z,12.96
2019-01-14T00:42:27.241Z,13.12
2019-01-14T00:44:58.757Z,13.12
2019-01-14T00:47:30.609Z,13.14
2019-01-14T00:50:02.329Z,13.11
2019-01-14T00:52:34.430Z,13.11
2019-01-14T00:55:06.400Z,12.95
2019-01-14T00:57:38.464Z,13.02
2019-01-14T01:00:23.077Z,12.91
2019-01-14T01:02:56.203Z,12.91
2019-01-14T01:05:27.551Z,12.90
2019-01-14T01:07:59.089Z,12.95
2019-01-14T01:10:30.828Z,12.95
2019-01-14T01:13:02.780Z,12.95
2019-01-14T01:15:34.556Z,12.95
2019-01-14T01:18:06.596Z,12.86
2019-01-14T01:20:38.242Z,12.79
2019-01-14T01:23:10.222Z,12.78
2019-01-14T01:25:41.575Z,12.78
2019-01-14T01:28:14.571Z,12.78
2019-01-14T01:30:46.318Z,12.72
2019-01-14T01:33:18.084Z,12.74
2019-01-14T01:35:49.416Z,12.81
2019-01-14T01:38:21.316Z,12.84
2019-01-14T01:40:52.730Z,12.80
2019-01-14T01:43:23.998Z,12.80
2019-01-14T01:45:55.471Z,12.78
2019-01-14T01:48:27.155Z,12.83
2019-01-14T01:50:58.313Z,12.83
2019-01-14T01:53:31.423Z,12.60
2019-01-14T01:56:02.731Z,12.60
2019-01-14T01:58:34.265Z,12.80
2019-01-14T02:01:06.438Z,12.80
2019-01-14T02:03:38.370Z,12.85
2019-01-14T02:06:10.114Z,12.79
2019-01-14T02:08:41.652Z,12.79
2019-01-14T02:11:13.566Z,15.49
2019-01-14T02:13:45.120Z,15.65
2019-01-14T02:16:17.664Z,15.24
2019-01-14T02:18:49.058Z,15.24
2019-01-14T02:21:20.419Z,14.91
2019-01-14T02:23:52.036Z,14.91
2019-01-14T02:26:23.979Z,14.70
2019-01-14T02:28:55.680Z,14.73
2019-01-14T02:31:27.594Z,14.80
2019-01-14T02:33:59.448Z,14.80
2019-01-14T02:36:30.754Z,14.76
2019-01-14T02:39:02.291Z,14.80
2019-01-14T02:41:35.259Z,14.81
2019-01-14T02:44:06.811Z,14.79
2019-01-14T02:46:38.158Z,14.81
2019-01-14T02:49:09.984Z,14.82
2019-01-14T02:51:41.393Z,14.82
2019-01-14T02:54:15.639Z,14.98
2019-01-14T02:56:47.186Z,15.49
2019-01-14T02:59:19.788Z,15.71
2019-01-14T03:01:51.186Z,15.67
2019-01-14T03:04:22.732Z,15.94
2019-01-14T03:06:57.965Z,15.94
2019-01-14T03:09:27.029Z,15.95
2019-01-14T03:11:58.248Z,16.01
2019-01-14T03:14:29.792Z,16.01
2019-01-14T03:17:01.586Z,16.09
2019-01-14T03:19:33.032Z,16.10
2019-01-14T03:22:04.273Z,16.10
2019-01-14T03:24:35.843Z,16.09
2019-01-14T03:27:07.327Z,15.29
2019-01-14T03:29:39.581Z,15.10
2019-01-14T03:32:11.489Z,15.30
2019-01-14T03:34:44.239Z,15.31
2019-01-14T03:37:15.583Z,15.31
2019-01-14T03:39:46.978Z,15.37
2019-01-14T03:42:18.499Z,15.27
2019-01-14T03:44:50.018Z,15.49
2019-01-14T03:47:21.384Z,15.52
2019-01-14T03:49:53.096Z,15.52
2019-01-14T03:52:24.587Z,15.58
2019-01-14T03:54:56.202Z,15.70
2019-01-14T03:57:27.636Z,15.67
2019-01-14T03:59:59.364Z,15.67
2019-01-14T04:02:30.865Z,15.91
2019-01-14T04:05:02.699Z,15.83
2019-01-14T04:07:34.299Z,15.83
2019-01-14T04:10:07.146Z,15.84
2019-01-14T04:12:38.760Z,15.91
2019-01-14T04:15:11.560Z,15.93
2019-01-14T04:17:43.220Z,15.93
2019-01-14T04:20:16.877Z,15.89
2019-01-14T04:22:48.843Z,15.89
2019-01-14T04:25:20.341Z,16.06
2019-01-14T04:27:52.101Z,16.06
2019-01-14T04:30:25.534Z,16.15
2019-01-14T04:32:57.003Z,16.29
2019-01-14T04:35:28.801Z,16.29
2019-01-14T04:38:00.409Z,16.23
2019-01-14T04:40:32.005Z,16.24
2019-01-14T04:43:04.170Z,16.24
2019-01-14T04:45:35.709Z,16.24
2019-01-14T04:48:08.489Z,16.38
2019-01-14T04:50:39.911Z,16.38
2019-01-14T04:53:12.243Z,16.51
2019-01-14T04:55:43.637Z,16.51
2019-01-14T04:58:15.317Z,16.47
2019-01-14T05:00:46.972Z,16.47
2019-01-14T05:03:18.537Z,16.56
2019-01-14T05:05:49.927Z,16.52
2019-01-14T05:08:21.640Z,16.56
2019-01-14T05:10:53.080Z,16.56
2019-01-14T05:13:24.807Z,16.73
2019-01-14T05:15:56.185Z,16.73
2019-01-14T05:18:27.654Z,16.74
2019-01-14T05:20:59.057Z,16.61
2019-01-14T05:23:31.555Z,16.66
2019-01-14T05:26:03.208Z,16.66
2019-01-14T05:28:35.189Z,16.87
2019-01-14T05:31:06.749Z,16.87
2019-01-14T05:33:38.330Z,16.86
2019-01-14T05:36:10.005Z,16.86
2019-01-14T05:38:41.340Z,16.90
2019-01-14T05:41:13.033Z,16.90
2019-01-14T05:43:44.439Z,16.92
2019-01-14T05:46:15.757Z,17.02
2019-01-14T05:48:47.149Z,17.07
2019-01-14T05:51:18.946Z,17.17
2019-01-14T05:53:50.823Z,17.09
2019-01-14T05:56:23.223Z,17.09
2019-01-14T05:58:54.631Z,17.26
2019-01-14T06:01:26.157Z,17.33
2019-01-14T06:03:57.692Z,17.19
2019-01-14T06:06:29.184Z,17.19
2019-01-14T06:09:00.462Z,17.30
2019-01-14T06:11:32.082Z,17.30
2019-01-14T06:14:03.474Z,17.47
2019-01-14T06:16:34.611Z,17.52
2019-01-14T06:19:06.219Z,17.52
2019-01-14T06:21:37.523Z,17.48
2019-01-14T06:24:09.421Z,17.71
2019-01-14T06:26:40.883Z,17.71
2019-01-14T06:29:12.574Z,17.71
2019-01-14T06:31:43.920Z,17.65
2019-01-14T06:34:15.417Z,17.89
2019-01-14T06:36:47.094Z,17.80
2019-01-14T06:39:18.784Z,17.80
2019-01-14T06:41:50.205Z,17.73
2019-01-14T06:44:21.889Z,17.92
2019-01-14T06:46:53.316Z,17.92
2019-01-14T06:49:28.629Z,17.79
2019-01-14T06:52:09.599Z,17.82
2019-01-14T06:54:41.022Z,17.82
2019-01-14T06:57:12.412Z,17.79
2019-01-14T06:59:50.872Z,17.94
2019-01-14T07:02:22.688Z,17.88
2019-01-14T07:04:54.094Z,17.95
2019-01-14T07:07:25.512Z,18.02
2019-01-14T07:09:57.101Z,18.10
2019-01-14T07:12:28.772Z,18.10
2019-01-14T07:15:00.116Z,18.13
2019-01-14T07:17:32.816Z,18.26
2019-01-14T07:20:05.280Z,18.22
2019-01-14T07:22:36.826Z,18.34
2019-01-14T07:25:08.901Z,18.42
2019-01-14T07:27:43.422Z,18.42
2019-01-14T07:30:16.952Z,18.37
2019-01-14T07:32:48.529Z,18.36
2019-01-14T07:35:20.203Z,18.30
2019-01-14T07:37:52.028Z,18.33
2019-01-14T07:40:23.385Z,18.33
2019-01-14T07:42:54.870Z,18.42
2019-01-14T07:45:26.269Z,18.42
2019-01-14T07:47:57.820Z,18.41
2019-01-14T07:50:29.913Z,18.43
2019-01-14T07:53:01.459Z,18.43
2019-01-14T07:55:32.918Z,18.55
2019-01-14T07:58:04.591Z,18.48
2019-01-14T08:00:35.851Z,18.60
2019-01-14T08:03:07.266Z,18.60
2019-01-14T08:05:38.561Z,18.60
2019-01-14T08:08:13.925Z,18.59
2019-01-14T08:10:42.793Z,18.58
2019-01-14T08:13:22.683Z,18.58
2019-01-14T08:15:55.066Z,18.58
2019-01-14T08:18:26.379Z,18.50
2019-01-14T08:20:59.730Z,18.52
2019-01-14T08:23:40.667Z,18.52
2019-01-14T08:26:13.164Z,18.59
2019-01-14T08:28:44.622Z,18.61
2019-01-14T08:31:16.446Z,18.71
2019-01-14T08:33:47.936Z,18.71
2019-01-14T08:36:20.094Z,18.76
2019-01-14T08:38:51.665Z,18.76
2019-01-14T08:41:26.479Z,18.56
2019-01-14T08:44:01.911Z,18.56
2019-01-14T08:46:34.548Z,18.69
2019-01-14T08:49:05.952Z,18.69
2019-01-14T08:51:38.025Z,18.59
2019-01-14T08:54:09.257Z,18.59
2019-01-14T08:56:44.089Z,18.56
2019-01-14T08:59:15.425Z,18.56
2019-01-14T09:01:47.019Z,18.44
2019-01-14T09:04:22.353Z,18.39
2019-01-14T09:06:53.166Z,18.49
2019-01-14T09:09:24.518Z,18.49
2019-01-14T09:11:56.407Z,18.57
2019-01-14T09:14:27.716Z,18.57
2019-01-14T09:16:59.056Z,18.48
2019-01-14T09:19:30.527Z,18.39
2019-01-14T09:22:02.633Z,18.50
2019-01-14T09:24:35.224Z,18.52
2019-01-14T09:27:06.799Z,18.54
2019-01-14T09:29:38.150Z,18.54
2019-01-14T09:32:09.709Z,18.55
2019-01-14T09:34:41.289Z,18.55
2019-01-14T09:37:13.125Z,18.53
2019-01-14T09:39:44.795Z,18.54
2019-01-14T09:42:16.947Z,18.54
2019-01-14T09:44:48.307Z,18.49
2019-01-14T09:47:20.629Z,18.53
2019-01-14T09:49:52.496Z,18.61
2019-01-14T09:52:24.844Z,18.61
2019-01-14T09:54:56.623Z,18.60
2019-01-14T09:57:28.195Z,18.55
2019-01-14T10:00:00.290Z,18.55
2019-01-14T10:02:31.777Z,18.70
2019-01-14T10:05:03.929Z,18.70
2019-01-14T10:07:35.444Z,18.62
2019-01-14T10:10:08.598Z,18.62
2019-01-14T10:12:42.847Z,18.64
2019-01-14T10:15:17.220Z,18.56
2019-01-14T10:17:51.284Z,18.60
2019-01-14T10:20:24.897Z,18.65
2019-01-14T10:22:56.254Z,18.65
2019-01-14T10:25:28.075Z,18.68
2019-01-14T10:27:59.388Z,18.68
2019-01-14T10:41:53.053Z,18.69
2019-01-14T10:44:24.777Z,18.69
2019-01-14T10:46:56.091Z,18.63
2019-01-14T10:49:27.792Z,18.65
2019-01-14T10:51:59.013Z,18.65
2019-01-14T10:54:30.723Z,18.64
2019-01-14T10:57:03.010Z,18.56
2019-01-14T10:59:34.644Z,18.61
2019-01-14T11:02:06.244Z,18.61
2019-01-14T11:04:37.829Z,18.60
2019-01-14T11:07:09.327Z,18.57
2019-01-14T11:09:44.534Z,18.53
2019-01-14T11:12:14.007Z,18.42
2019-01-14T11:14:45.528Z,18.42
2019-01-14T11:17:17.224Z,18.42
2019-01-14T11:19:48.663Z,18.33
2019-01-14T11:22:20.290Z,18.33
2019-01-14T11:24:52.419Z,18.39
2019-01-14T11:27:24.216Z,18.27
2019-01-14T11:29:55.978Z,18.27
2019-01-14T11:32:27.458Z,18.42
2019-01-14T11:34:58.863Z,18.42
2019-01-14T11:37:30.491Z,18.36
2019-01-14T11:40:01.791Z,18.36
2019-01-14T11:42:33.608Z,18.28
2019-01-14T11:45:05.150Z,18.31
2019-01-14T11:47:36.723Z,18.20
2019-01-14T11:50:10.286Z,18.20
2019-01-14T11:52:42.114Z,18.24
2019-01-14T11:55:28.649Z,18.31
2019-01-14T11:58:00.892Z,18.23
2019-01-14T12:00:36.583Z,18.28
2019-01-14T12:03:05.659Z,18.28
2019-01-14T12:05:36.866Z,18.26
2019-01-14T12:08:08.237Z,18.41
2019-01-14T12:10:39.644Z,18.33
2019-01-14T12:13:10.928Z,18.33
2019-01-14T12:15:41.828Z,18.42
2019-01-14T12:18:13.102Z,18.44
2019-01-14T12:20:44.091Z,18.31
2019-01-14T12:23:15.512Z,18.31
2019-01-14T12:25:47.147Z,18.30
2019-01-14T12:28:19.032Z,18.33
2019-01-14T12:30:50.333Z,18.25
2019-01-14T12:33:21.713Z,18.25
2019-01-14T12:35:52.664Z,17.97
2019-01-14T12:38:24.870Z,18.03
2019-01-14T12:40:55.949Z,17.83
2019-01-14T12:43:27.308Z,17.83
2019-01-14T12:45:58.499Z,17.75
2019-01-14T12:48:30.094Z,17.74
2019-01-14T12:51:01.850Z,17.73
2019-01-14T12:53:33.296Z,17.89
2019-01-14T12:56:04.635Z,18.09
2019-01-14T12:58:36.397Z,18.14
2019-01-14T13:01:07.608Z,17.90
2019-01-14T13:03:39.041Z,17.61
2019-01-14T13:06:10.505Z,17.61
2019-01-14T13:08:42.049Z,17.69
2019-01-14T13:11:13.356Z,17.65
2019-01-14T13:13:44.493Z,17.65
2019-01-14T13:16:15.835Z,17.58
2019-01-14T13:18:47.206Z,17.42
2019-01-14T13:21:18.817Z,17.47
2019-01-14T13:23:50.415Z,17.72
2019-01-14T13:26:21.884Z,17.73
2019-01-14T13:28:53.827Z,17.75
2019-01-14T13:31:25.503Z,17.74
2019-01-14T13:33:57.125Z,17.97
2019-01-14T13:36:28.550Z,18.02
2019-01-14T13:38:59.890Z,18.02
2019-01-14T13:41:31.779Z,17.89
2019-01-14T13:44:02.969Z,17.89
2019-01-14T13:46:34.707Z,17.95
2019-01-14T13:49:06.458Z,17.95
2019-01-14T13:51:38.204Z,17.83
2019-01-14T13:54:10.069Z,17.95
2019-01-14T13:56:41.719Z,18.04
2019-01-14T13:59:13.342Z,18.04
2019-01-14T14:01:44.888Z,17.94
2019-01-14T14:04:16.578Z,17.90
2019-01-14T14:06:47.931Z,17.94
2019-01-14T14:09:19.010Z,18.02
2019-01-14T14:11:50.346Z,17.98
2019-01-14T14:14:22.287Z,18.02
2019-01-14T14:16:53.662Z,18.02
2019-01-14T14:19:25.069Z,17.87
2019-01-14T14:21:56.500Z,17.87
2019-01-14T14:24:28.310Z,17.91
2019-01-14T14:27:00.243Z,17.90
2019-01-14T14:29:31.707Z,17.77
2019-01-14T14:32:04.462Z,17.87
2019-01-14T14:34:36.436Z,17.92
2019-01-14T14:37:07.978Z,17.88
2019-01-14T14:39:39.871Z,17.97
2019-01-14T14:42:11.493Z,17.92
2019-01-14T14:44:43.061Z,17.92
2019-01-14T14:47:15.119Z,17.29
2019-01-14T14:49:46.592Z,17.55
2019-01-14T14:52:18.031Z,17.55
2019-01-14T14:54:49.865Z,17.69
2019-01-14T14:57:21.277Z,17.71
2019-01-14T14:59:52.908Z,17.40
2019-01-14T15:02:23.959Z,17.40
2019-01-14T15:04:55.168Z,17.23
2019-01-14T15:07:26.781Z,17.23
2019-01-14T15:09:59.661Z,17.49
2019-01-14T15:12:30.983Z,17.49
2019-01-14T15:15:02.400Z,17.77
2019-01-14T15:17:33.466Z,17.77
2019-01-14T15:20:06.545Z,17.78
2019-01-14T15:22:37.994Z,17.78
2019-01-14T15:25:09.207Z,17.31
2019-01-14T15:27:41.510Z,17.33
2019-01-14T15:30:19.729Z,17.33
2019-01-14T15:32:51.189Z,15.68
2019-01-14T15:35:23.140Z,15.25
2019-01-14T15:37:54.793Z,15.25
2019-01-14T15:40:26.810Z,15.18
2019-01-14T15:42:59.097Z,15.18
2019-01-14T15:45:30.476Z,15.12
2019-01-14T15:48:03.353Z,15.09
2019-01-14T15:50:34.749Z,15.11
2019-01-14T15:53:06.064Z,15.08
2019-01-14T15:55:39.109Z,15.04
2019-01-14T15:58:11.019Z,15.04
2019-01-14T16:00:42.411Z,15.04
2019-01-14T16:03:13.896Z,14.98
2019-01-14T16:05:45.550Z,15.06
2019-01-14T16:08:17.428Z,15.06
2019-01-14T16:10:48.844Z,14.94
2019-01-14T16:13:20.371Z,15.03
2019-01-14T16:15:51.675Z,15.03
2019-01-14T16:18:23.044Z,14.80
2019-01-14T16:20:54.502Z,14.80
2019-01-14T16:23:26.071Z,14.83
2019-01-14T16:25:57.536Z,14.80
2019-01-14T16:28:30.268Z,14.51
2019-01-14T16:31:01.989Z,14.56
2019-01-14T16:33:34.068Z,14.56
2019-01-14T16:36:05.523Z,14.47
2019-01-14T16:38:37.013Z,14.39
2019-01-14T16:41:08.390Z,14.44
2019-01-14T16:43:39.841Z,14.35
2019-01-14T16:46:12.294Z,14.36
2019-01-14T16:48:43.962Z,14.31
2019-01-14T16:51:15.245Z,14.31
2019-01-14T16:53:46.712Z,14.37
2019-01-14T16:56:18.511Z,14.27
2019-01-14T16:58:50.652Z,14.27
2019-01-14T17:01:22.095Z,14.13
2019-01-14T17:03:53.536Z,13.98
2019-01-14T17:06:24.802Z,14.19
2019-01-14T17:08:56.467Z,14.17
2019-01-14T17:11:28.213Z,14.01
2019-01-14T17:13:59.532Z,14.01
2019-01-14T17:16:30.736Z,14.16
2019-01-14T17:19:03.412Z,14.18
2019-01-14T17:21:34.881Z,14.18
2019-01-14T17:24:06.508Z,14.23
2019-01-14T17:26:38.008Z,14.23
2019-01-14T17:29:11.193Z,14.31
2019-01-14T17:31:44.852Z,14.22
2019-01-14T17:34:16.721Z,14.26
2019-01-14T17:36:48.509Z,14.29
2019-01-14T17:39:20.105Z,14.18
2019-01-14T17:41:52.044Z,14.18
2019-01-14T17:44:23.739Z,14.28
2019-01-14T17:46:55.295Z,14.30
2019-01-14T17:49:26.937Z,14.30
2019-01-14T17:51:58.390Z,14.35
2019-01-14T17:54:30.037Z,14.29
2019-01-14T17:57:01.216Z,14.26
2019-01-14T17:59:32.702Z,14.02
2019-01-14T18:02:04.432Z,14.02
2019-01-14T18:04:35.838Z,14.07
2019-01-14T18:07:06.974Z,14.08
2019-01-14T18:09:39.079Z,14.08
2019-01-14T18:12:10.418Z,14.14
2019-01-14T18:14:41.649Z,14.23
2019-01-14T18:17:13.047Z,14.23
2019-01-14T18:19:44.322Z,14.04
2019-01-14T18:22:15.520Z,14.04
2019-01-14T18:24:46.986Z,14.11
2019-01-14T18:27:18.594Z,13.99
2019-01-14T18:29:50.311Z,13.88
2019-01-14T18:32:21.474Z,13.96
2019-01-14T18:34:53.035Z,14.14
2019-01-14T18:37:24.182Z,13.95
2019-01-14T18:39:56.258Z,13.95
2019-01-14T18:42:27.591Z,13.89
2019-01-14T18:44:59.185Z,13.75
2019-01-14T18:47:30.785Z,13.84
2019-01-14T18:50:01.979Z,13.87
2019-01-14T18:52:33.231Z,14.02
2019-01-14T18:55:04.540Z,13.72
2019-01-14T18:57:35.718Z,13.68
2019-01-14T19:00:10.304Z,13.69
2019-01-14T19:02:42.157Z,13.62
2019-01-14T19:05:13.506Z,13.46
2019-01-14T19:07:44.990Z,13.46
2019-01-14T19:10:17.013Z,13.45
2019-01-14T19:12:48.809Z,13.45
2019-01-14T19:15:21.514Z,13.28
2019-01-14T19:17:53.998Z,13.25
2019-01-14T19:20:27.402Z,13.25
2019-01-14T19:22:59.937Z,13.35
2019-01-14T19:25:31.359Z,13.26
2019-01-14T19:28:02.607Z,13.27
2019-01-14T19:30:33.730Z,13.26
2019-01-14T19:33:05.357Z,13.35
2019-01-14T19:35:36.649Z,13.39
2019-01-14T19:38:08.023Z,13.28
2019-01-14T19:40:39.414Z,13.28
2019-01-14T19:43:11.159Z,13.08
2019-01-14T19:45:49.718Z,13.08
2019-01-14T19:48:17.821Z,13.14
2019-01-14T19:50:49.008Z,13.18
2019-01-14T19:53:20.317Z,13.06
2019-01-14T19:55:51.510Z,13.06
2019-01-14T19:58:22.903Z,13.21
2019-01-14T20:00:54.461Z,13.18
2019-01-14T20:03:25.797Z,13.05
2019-01-14T20:05:57.301Z,12.95
2019-01-14T20:08:28.760Z,12.95
2019-01-14T20:10:59.818Z,12.91
2019-01-14T20:13:31.103Z,12.98
2019-01-14T20:16:02.290Z,13.06
2019-01-14T20:18:33.583Z,13.06
2019-01-14T20:21:05.375Z,12.81
2019-01-14T20:23:37.350Z,12.81
2019-01-14T20:26:08.539Z,12.80
2019-01-14T20:28:39.930Z,12.75
2019-01-14T20:31:11.151Z,12.75
2019-01-14T20:33:42.474Z,12.83
2019-01-14T20:36:13.703Z,12.96
2019-01-14T20:38:45.249Z,12.76
2019-01-14T20:41:18.655Z,12.55
2019-01-14T20:43:49.774Z,12.77
2019-01-14T20:46:21.131Z,12.77
2019-01-14T20:48:52.978Z,12.81
2019-01-14T20:51:24.469Z,12.88
2019-01-14T20:53:55.922Z,12.80
2019-01-14T20:56:27.428Z,12.86
2019-01-14T20:58:58.792Z,12.86
2019-01-14T21:01:30.444Z,12.71
2019-01-14T21:04:03.119Z,12.64
2019-01-14T21:06:34.416Z,12.41
2019-01-14T21:09:08.011Z,12.47
2019-01-14T21:11:40.678Z,12.39
2019-01-14T21:14:12.452Z,12.52
2019-01-14T21:16:44.055Z,12.46
2019-01-14T21:19:15.792Z,12.46
2019-01-14T21:21:47.837Z,12.46
2019-01-14T21:24:19.578Z,12.18
2019-01-14T21:26:51.053Z,11.96
2019-01-14T21:29:25.984Z,12.14
2019-01-14T21:31:57.075Z,12.14
2019-01-14T21:34:28.682Z,12.23
2019-01-14T21:37:00.276Z,12.23
2019-01-14T21:39:31.561Z,12.18
2019-01-14T21:42:03.125Z,12.24
2019-01-14T21:44:34.559Z,12.20
2019-01-14T21:47:06.228Z,12.35
2019-01-14T21:49:37.983Z,12.35
2019-01-14T21:52:10.307Z,12.20
2019-01-14T21:54:41.684Z,12.33
2019-01-14T21:57:13.042Z,12.25
2019-01-14T21:59:45.032Z,12.25
2019-01-14T22:02:16.592Z,12.19
2019-01-14T22:04:47.773Z,12.09
2019-01-14T22:07:19.460Z,12.08
2019-01-14T22:09:51.308Z,12.08
2019-01-14T22:12:22.755Z,12.09
2019-01-14T22:14:54.457Z,11.85
2019-01-14T22:17:26.075Z,11.84
2019-01-14T22:19:57.739Z,11.93
2019-01-14T22:22:29.662Z,11.78
2019-01-14T22:25:01.324Z,11.54
2019-01-14T22:27:32.744Z,11.84
2019-01-14T22:30:04.697Z,11.84
2019-01-14T22:32:36.298Z,11.74
2019-01-14T22:35:11.053Z,11.74
2019-01-14T22:37:42.478Z,11.57
2019-01-14T22:40:14.725Z,11.57
2019-01-14T22:42:46.418Z,11.67
2019-01-14T22:45:18.238Z,11.55
2019-01-14T22:47:49.593Z,11.46
2019-01-14T22:50:21.478Z,11.46
2019-01-14T22:52:53.023Z,11.57
2019-01-14T22:55:24.661Z,11.66
2019-01-14T22:57:55.965Z,11.35
2019-01-14T23:00:54.526Z,11.25
2019-01-14T23:03:26.307Z,11.25
2019-01-14T23:05:57.516Z,11.21
2019-01-14T23:08:28.964Z,11.21
2019-01-14T23:11:00.122Z,11.37
2019-01-14T23:13:31.913Z,11.37
2019-01-14T23:16:03.166Z,11.21
2019-01-14T23:18:34.713Z,11.42
2019-01-14T23:21:06.034Z,11.30
2019-01-14T23:23:39.391Z,11.38
2019-01-14T23:26:12.402Z,11.42
2019-01-14T23:28:44.335Z,11.52
2019-01-14T23:31:16.165Z,11.30
2019-01-14T23:33:47.762Z,11.24
2019-01-14T23:36:19.189Z,11.24
2019-01-14T23:38:51.116Z,11.22
2019-01-14T23:41:22.426Z,11.20
2019-01-14T23:43:54.041Z,11.20
2019-01-14T23:46:25.394Z,11.41
2019-01-14T23:48:56.942Z,11.32
2019-01-14T23:51:28.259Z,11.22
2019-01-14T23:54:00.398Z,11.11
2019-01-14T23:56:33.479Z,11.11
2019-01-14T23:59:05.288Z,11.40
